createdAt,value
2023-04-30T00:02:27.885Z,14.31
2023-04-30T00:04:56.137Z,14.77
2023-04-30T00:07:24.445Z,14.23
2023-04-30T00:09:53.101Z,14.43
2023-04-30T00:12:22.000Z,14.81
2023-04-30T00:14:51.947Z,15.10
2023-04-30T00:17:20.197Z,14.79
2023-04-30T00:19:48.443Z,14.90
2023-04-30T00:22:16.710Z,14.75
2023-04-30T00:24:45.184Z,14.21
2023-04-30T00:27:13.429Z,14.43
2023-04-30T00:29:42.269Z,14.24
2023-04-30T00:32:11.957Z,13.91
2023-04-30T00:34:40.348Z,14.43
2023-04-30T00:37:08.583Z,14.58
2023-04-30T00:39:36.799Z,14.14
2023-04-30T00:42:05.200Z,14.14
2023-04-30T00:44:33.418Z,14.36
2023-04-30T00:47:01.682Z,13.89
2023-04-30T00:49:31.345Z,14.23
2023-04-30T00:51:59.665Z,13.95
2023-04-30T00:54:27.971Z,13.63
2023-04-30T00:56:56.349Z,14.09
2023-04-30T00:59:25.555Z,14.43
2023-04-30T01:01:54.882Z,14.11
2023-04-30T01:04:23.241Z,14.06
2023-04-30T01:06:53.125Z,14.22
2023-04-30T01:09:21.613Z,14.33
2023-04-30T01:12:01.793Z,14.08
2023-04-30T01:14:39.256Z,13.82
2023-04-30T01:17:14.328Z,14.33
2023-04-30T01:19:45.304Z,13.81
2023-04-30T01:22:37.323Z,13.84
2023-04-30T01:25:24.511Z,14.08
2023-04-30T01:28:06.717Z,14.10
2023-04-30T01:30:36.478Z,14.16
2023-04-30T01:33:05.368Z,14.33
2023-04-30T01:35:59.980Z,14.31
2023-04-30T01:38:47.985Z,14.38
2023-04-30T01:41:29.518Z,14.45
2023-04-30T01:44:25.857Z,14.51
2023-04-30T01:47:08.802Z,14.60
2023-04-30T01:49:58.064Z,14.66
2023-04-30T01:52:33.368Z,14.60
2023-04-30T01:55:10.766Z,14.61
2023-04-30T01:57:41.430Z,14.57
2023-04-30T02:00:12.797Z,14.58
2023-04-30T02:02:41.143Z,14.55
2023-04-30T02:05:10.202Z,14.55
2023-04-30T02:07:42.613Z,14.61
2023-04-30T02:10:12.950Z,14.14
2023-04-30T02:12:42.131Z,14.33
2023-04-30T02:15:12.844Z,14.46
2023-04-30T02:17:41.181Z,14.44
2023-04-30T02:20:10.630Z,14.39
2023-04-30T02:22:39.258Z,14.45
2023-04-30T02:25:08.388Z,14.32
2023-04-30T02:27:36.635Z,14.38
2023-04-30T02:30:06.291Z,14.35
2023-04-30T02:32:36.302Z,14.38
2023-04-30T02:35:04.952Z,14.31
2023-04-30T02:37:33.219Z,14.27
2023-04-30T02:40:01.470Z,14.35
2023-04-30T02:42:29.732Z,14.35
2023-04-30T02:44:57.952Z,14.21
2023-04-30T02:47:26.218Z,14.26
2023-04-30T02:49:56.023Z,14.28
2023-04-30T02:52:24.570Z,14.25
2023-04-30T02:54:52.811Z,14.26
2023-04-30T02:57:21.033Z,14.18
2023-04-30T02:59:49.438Z,14.16
2023-04-30T03:02:21.493Z,14.17
2023-04-30T03:04:50.204Z,14.24
2023-04-30T03:07:19.939Z,14.19
2023-04-30T03:09:48.254Z,14.21
2023-04-30T03:12:16.625Z,14.17
2023-04-30T03:14:44.878Z,14.14
2023-04-30T03:17:13.131Z,14.16
2023-04-30T03:19:41.372Z,14.17
2023-04-30T03:22:09.613Z,14.10
2023-04-30T03:24:39.258Z,14.05
2023-04-30T03:27:07.469Z,14.06
2023-04-30T03:29:35.847Z,14.01
2023-04-30T03:32:04.249Z,13.99
2023-04-30T03:34:32.676Z,14.01
2023-04-30T03:37:01.852Z,14.06
2023-04-30T03:39:30.098Z,14.04
2023-04-30T03:41:59.669Z,13.96
2023-04-30T03:44:27.903Z,13.95
2023-04-30T03:46:56.142Z,13.89
2023-04-30T03:49:24.418Z,14.01
2023-04-30T03:51:52.630Z,14.03
2023-04-30T03:54:21.337Z,13.91
2023-04-30T03:56:49.592Z,13.92
2023-04-30T03:59:19.624Z,13.87
2023-04-30T04:01:47.851Z,13.82
2023-04-30T04:04:16.221Z,13.86
2023-04-30T04:06:44.655Z,13.88
2023-04-30T04:09:13.326Z,13.77
2023-04-30T04:11:41.524Z,13.84
2023-04-30T04:14:09.848Z,13.87
2023-04-30T04:16:39.522Z,13.91
2023-04-30T04:19:07.783Z,13.92
2023-04-30T04:21:36.038Z,13.85
2023-04-30T04:24:08.562Z,13.79
2023-04-30T04:26:37.344Z,13.81
2023-04-30T04:29:05.766Z,13.81
2023-04-30T04:31:34.111Z,13.74
2023-04-30T04:34:06.216Z,13.84
2023-04-30T04:36:34.520Z,13.87
2023-04-30T04:39:03.194Z,13.81
2023-04-30T04:41:32.701Z,13.83
2023-04-30T04:44:01.824Z,13.19
2023-04-30T04:46:31.616Z,13.38
2023-04-30T04:49:00.564Z,13.48
2023-04-30T04:51:30.439Z,13.33
2023-04-30T04:53:58.959Z,13.66
2023-04-30T04:56:27.350Z,14.55
2023-04-30T04:58:55.659Z,15.56
2023-04-30T05:01:23.897Z,15.82
2023-04-30T05:03:53.764Z,16.10
2023-04-30T05:06:22.162Z,16.34
2023-04-30T05:08:51.787Z,16.58
2023-04-30T05:11:20.008Z,16.73
2023-04-30T05:13:48.251Z,16.27
2023-04-30T05:16:16.778Z,16.50
2023-04-30T05:18:45.089Z,17.16
2023-04-30T05:21:13.337Z,17.28
2023-04-30T05:23:41.581Z,16.70
2023-04-30T05:26:11.206Z,16.90
2023-04-30T05:28:39.401Z,17.26
2023-04-30T05:31:07.754Z,16.55
2023-04-30T05:33:37.160Z,15.50
2023-04-30T05:36:06.250Z,16.19
2023-04-30T05:38:34.444Z,16.27
2023-04-30T05:41:02.690Z,16.60
2023-04-30T05:43:32.530Z,17.12
2023-04-30T05:46:00.848Z,16.88
2023-04-30T05:48:29.081Z,16.87
2023-04-30T05:50:57.357Z,17.93
2023-04-30T05:53:25.603Z,17.04
2023-04-30T05:55:53.872Z,15.33
2023-04-30T05:58:22.084Z,15.95
2023-04-30T06:00:53.057Z,16.39
2023-04-30T06:03:21.531Z,16.41
2023-04-30T06:05:49.892Z,16.06
2023-04-30T06:08:18.154Z,15.80
2023-04-30T06:10:46.601Z,17.45
2023-04-30T06:13:15.447Z,17.44
2023-04-30T06:15:43.763Z,18.06
2023-04-30T06:18:14.380Z,17.33
2023-04-30T06:20:42.697Z,16.87
2023-04-30T06:23:10.946Z,16.53
2023-04-30T06:25:39.374Z,17.01
2023-04-30T06:28:09.316Z,18.49
2023-04-30T06:30:38.376Z,17.82
2023-04-30T06:33:06.689Z,16.56
2023-04-30T06:35:36.586Z,16.26
2023-04-30T06:38:05.137Z,16.83
2023-04-30T06:40:33.436Z,17.31
2023-04-30T06:43:01.948Z,18.03
2023-04-30T06:45:30.838Z,17.60
2023-04-30T06:47:59.572Z,16.62
2023-04-30T06:50:28.280Z,17.56
2023-04-30T06:52:58.194Z,17.24
2023-04-30T06:55:28.140Z,16.43
2023-04-30T06:57:57.876Z,16.59
2023-04-30T07:00:26.601Z,16.63
2023-04-30T07:02:56.347Z,17.31
2023-04-30T07:05:24.920Z,18.49
2023-04-30T07:07:53.540Z,17.86
2023-04-30T07:10:23.536Z,16.97
2023-04-30T07:12:52.096Z,16.30
2023-04-30T07:15:20.937Z,16.72
2023-04-30T07:17:49.592Z,17.40
2023-04-30T07:20:18.226Z,17.14
2023-04-30T07:22:47.047Z,17.19
2023-04-30T07:25:16.030Z,17.19
2023-04-30T07:27:46.403Z,16.77
2023-04-30T07:30:14.962Z,16.51
2023-04-30T07:32:43.753Z,17.68
2023-04-30T07:35:12.340Z,18.64
2023-04-30T07:37:41.613Z,18.19
2023-04-30T07:40:15.296Z,18.33
2023-04-30T07:42:47.254Z,18.64
2023-04-30T07:45:15.847Z,17.79
2023-04-30T07:47:44.545Z,18.24
2023-04-30T07:50:14.865Z,18.22
2023-04-30T07:52:43.444Z,17.47
2023-04-30T07:55:11.941Z,18.10
2023-04-30T07:57:40.464Z,18.76
2023-04-30T08:00:11.324Z,17.22
2023-04-30T08:02:39.992Z,17.58
2023-04-30T08:05:09.329Z,17.56
2023-04-30T08:07:37.874Z,17.43
2023-04-30T08:10:07.177Z,18.35
2023-04-30T08:12:38.079Z,18.56
2023-04-30T08:15:07.910Z,20.30
2023-04-30T08:17:38.106Z,20.09
2023-04-30T08:20:08.444Z,16.90
2023-04-30T08:22:36.702Z,17.81
2023-04-30T08:25:05.345Z,18.93
2023-04-30T08:27:33.850Z,20.08
2023-04-30T08:30:02.066Z,20.17
2023-04-30T08:32:30.754Z,21.15
2023-04-30T08:35:00.411Z,21.77
2023-04-30T08:37:28.687Z,21.13
2023-04-30T08:39:57.158Z,21.50
2023-04-30T08:42:36.400Z,20.54
2023-04-30T08:45:05.693Z,20.00
2023-04-30T08:47:34.334Z,20.46
2023-04-30T08:50:04.240Z,20.29
2023-04-30T08:52:35.665Z,20.47
2023-04-30T08:55:08.059Z,20.22
2023-04-30T08:57:37.727Z,19.82
2023-04-30T09:00:08.387Z,18.19
2023-04-30T09:02:40.692Z,18.26
2023-04-30T09:05:13.518Z,19.74
2023-04-30T09:07:52.005Z,19.63
2023-04-30T09:10:33.546Z,19.38
2023-04-30T09:13:02.626Z,18.33
2023-04-30T09:15:32.174Z,18.74
2023-04-30T09:18:12.482Z,18.78
2023-04-30T09:20:57.440Z,19.47
2023-04-30T09:23:26.233Z,19.59
2023-04-30T09:25:54.722Z,19.70
2023-04-30T09:28:25.599Z,19.42
2023-04-30T09:30:54.789Z,19.16
2023-04-30T09:33:23.087Z,18.32
2023-04-30T09:35:52.794Z,19.88
2023-04-30T09:38:28.903Z,19.32
2023-04-30T09:41:00.775Z,19.35
2023-04-30T09:43:29.685Z,20.11
2023-04-30T09:46:00.723Z,19.45
2023-04-30T09:48:29.578Z,19.21
2023-04-30T09:50:59.541Z,20.08
2023-04-30T09:53:29.251Z,19.64
2023-04-30T09:56:03.957Z,18.70
2023-04-30T09:58:37.451Z,18.94
2023-04-30T10:01:08.019Z,19.16
2023-04-30T10:03:37.619Z,18.93
2023-04-30T10:06:08.986Z,19.41
2023-04-30T10:08:43.204Z,20.21
2023-04-30T10:11:17.327Z,20.17
2023-04-30T10:13:53.873Z,18.91
2023-04-30T10:16:35.578Z,20.41
2023-04-30T10:19:10.934Z,20.01
2023-04-30T10:21:43.499Z,19.76
2023-04-30T10:24:14.575Z,19.67
2023-04-30T10:26:44.588Z,20.28
2023-04-30T10:29:15.035Z,19.50
2023-04-30T10:31:47.850Z,18.90
2023-04-30T10:34:27.111Z,18.58
2023-04-30T10:37:01.622Z,18.68
2023-04-30T10:39:30.551Z,18.80
2023-04-30T10:42:06.286Z,19.43
2023-04-30T10:44:38.486Z,19.41
2023-04-30T10:47:08.588Z,17.97
2023-04-30T10:49:37.062Z,18.76
2023-04-30T10:52:07.272Z,18.80
2023-04-30T10:54:39.242Z,18.69
2023-04-30T10:57:17.650Z,19.17
2023-04-30T10:59:54.292Z,19.83
2023-04-30T11:02:22.965Z,20.75
2023-04-30T11:05:15.180Z,19.75
2023-04-30T11:07:52.908Z,19.85
2023-04-30T11:10:24.840Z,20.09
2023-04-30T11:12:54.689Z,18.91
2023-04-30T11:15:27.182Z,17.66
2023-04-30T11:17:59.571Z,17.61
2023-04-30T11:20:29.071Z,18.08
2023-04-30T11:23:13.174Z,18.38
2023-04-30T11:25:45.665Z,18.60
2023-04-30T11:28:17.782Z,17.98
2023-04-30T11:30:54.348Z,18.24
2023-04-30T11:33:27.246Z,18.16
2023-04-30T11:35:56.396Z,18.96
2023-04-30T11:38:29.465Z,19.22
2023-04-30T11:40:59.046Z,19.65
2023-04-30T11:43:29.186Z,19.65
2023-04-30T11:46:07.207Z,18.69
2023-04-30T11:48:37.518Z,18.50
2023-04-30T11:51:16.524Z,18.05
2023-04-30T11:53:47.733Z,18.45
2023-04-30T11:56:18.985Z,18.11
2023-04-30T11:58:49.009Z,18.21
2023-04-30T12:01:17.911Z,18.83
2023-04-30T12:03:48.542Z,19.15
2023-04-30T12:06:24.816Z,18.83
2023-04-30T12:08:56.026Z,18.59
2023-04-30T12:11:25.974Z,18.76
2023-04-30T12:14:03.466Z,18.26
2023-04-30T12:16:44.361Z,18.94
2023-04-30T12:19:13.029Z,18.88
2023-04-30T12:21:44.680Z,18.93
2023-04-30T12:24:15.061Z,18.59
2023-04-30T12:26:43.720Z,18.98
2023-04-30T12:29:15.842Z,18.57
2023-04-30T12:31:45.481Z,19.22
2023-04-30T12:34:16.082Z,19.33
2023-04-30T12:36:44.490Z,19.21
2023-04-30T12:39:16.772Z,18.73
2023-04-30T12:41:47.182Z,18.66
2023-04-30T12:44:19.990Z,18.86
2023-04-30T12:46:49.250Z,18.84
2023-04-30T12:49:28.287Z,19.38
2023-04-30T12:52:07.446Z,19.01
2023-04-30T12:54:38.662Z,19.14
2023-04-30T12:57:09.075Z,19.34
2023-04-30T12:59:40.509Z,18.82
2023-04-30T13:02:13.876Z,19.17
2023-04-30T13:04:43.642Z,18.98
2023-04-30T13:07:12.578Z,19.43
2023-04-30T13:09:42.197Z,19.42
2023-04-30T13:12:10.525Z,19.24
2023-04-30T13:14:38.841Z,18.91
2023-04-30T13:17:10.052Z,19.28
2023-04-30T13:19:38.341Z,19.36
2023-04-30T13:22:06.599Z,19.22
2023-04-30T13:24:34.883Z,18.74
2023-04-30T13:27:05.107Z,19.13
2023-04-30T13:29:33.421Z,19.32
2023-04-30T13:32:01.716Z,19.85
2023-04-30T13:34:29.966Z,18.96
2023-04-30T13:36:58.219Z,19.31
2023-04-30T13:39:26.639Z,19.43
2023-04-30T13:41:54.910Z,19.59
2023-04-30T13:44:24.634Z,18.89
2023-04-30T13:46:52.900Z,19.35
2023-04-30T13:49:21.220Z,19.52
2023-04-30T13:51:49.868Z,18.74
2023-04-30T13:54:18.133Z,18.88
2023-04-30T13:56:46.463Z,19.07
2023-04-30T13:59:14.806Z,19.67
2023-04-30T14:01:44.465Z,18.67
2023-04-30T14:04:14.227Z,18.47
2023-04-30T14:06:43.329Z,18.25
2023-04-30T14:09:11.842Z,18.88
2023-04-30T14:11:40.117Z,19.24
2023-04-30T14:14:09.850Z,19.33
2023-04-30T14:16:38.522Z,19.51
2023-04-30T14:19:08.176Z,19.71
2023-04-30T14:21:36.471Z,19.07
2023-04-30T14:24:05.014Z,18.77
2023-04-30T14:26:33.434Z,19.18
2023-04-30T14:29:01.699Z,18.97
2023-04-30T14:31:30.173Z,19.29
2023-04-30T14:33:58.536Z,19.15
2023-04-30T14:36:29.055Z,19.39
2023-04-30T14:38:57.422Z,19.35
2023-04-30T14:41:25.818Z,18.97
2023-04-30T14:43:54.217Z,19.17
2023-04-30T14:46:22.707Z,19.27
2023-04-30T14:48:50.986Z,19.42
2023-04-30T14:51:19.226Z,19.04
2023-04-30T14:53:48.938Z,18.70
2023-04-30T14:56:17.306Z,19.50
2023-04-30T14:58:45.545Z,19.54
2023-04-30T15:01:13.852Z,19.33
2023-04-30T15:03:42.494Z,19.36
2023-04-30T15:06:11.262Z,19.73
2023-04-30T15:08:40.728Z,19.14
2023-04-30T15:11:10.884Z,19.06
2023-04-30T15:13:39.136Z,18.90
2023-04-30T15:16:08.355Z,19.14
2023-04-30T15:18:37.290Z,18.58
2023-04-30T15:21:06.130Z,19.07
2023-04-30T15:23:34.386Z,19.03
2023-04-30T15:26:03.796Z,18.86
2023-04-30T15:28:34.095Z,19.13
2023-04-30T15:31:03.150Z,18.66
2023-04-30T15:33:31.814Z,18.63
2023-04-30T15:36:00.477Z,18.68
2023-04-30T15:38:29.259Z,18.21
2023-04-30T15:40:57.558Z,18.75
2023-04-30T15:43:25.785Z,18.74
2023-04-30T15:45:55.428Z,18.71
2023-04-30T15:48:23.710Z,18.76
2023-04-30T15:50:52.041Z,18.84
2023-04-30T15:53:20.290Z,18.20
2023-04-30T15:55:50.725Z,17.92
2023-04-30T15:58:18.962Z,18.46
2023-04-30T16:00:47.258Z,18.33
2023-04-30T16:03:16.980Z,18.30
2023-04-30T16:05:45.362Z,18.72
2023-04-30T16:08:13.826Z,18.74
2023-04-30T16:10:42.205Z,18.78
2023-04-30T16:13:10.474Z,18.27
2023-04-30T16:15:38.797Z,18.10
2023-04-30T16:18:07.828Z,18.01
2023-04-30T16:20:38.394Z,18.71
2023-04-30T16:23:06.966Z,18.91
2023-04-30T16:25:35.263Z,18.96
2023-04-30T16:28:03.490Z,18.55
2023-04-30T16:30:31.830Z,18.94
2023-04-30T16:33:00.237Z,19.18
2023-04-30T16:35:28.623Z,18.67
2023-04-30T16:37:58.245Z,18.48
2023-04-30T16:40:26.722Z,18.55
2023-04-30T16:42:55.652Z,18.31
2023-04-30T16:45:24.170Z,18.37
2023-04-30T16:47:52.535Z,18.54
2023-04-30T16:50:20.862Z,18.11
2023-04-30T16:52:49.117Z,18.59
2023-04-30T16:55:18.856Z,18.47
2023-04-30T16:57:47.172Z,18.28
2023-04-30T17:00:16.809Z,17.94
2023-04-30T17:02:48.922Z,17.82
2023-04-30T17:05:17.486Z,17.98
2023-04-30T17:07:45.804Z,17.74
2023-04-30T17:10:15.069Z,17.57
2023-04-30T17:12:45.389Z,17.56
2023-04-30T17:15:13.744Z,17.64
2023-04-30T17:17:42.263Z,17.29
2023-04-30T17:20:12.247Z,17.63
2023-04-30T17:22:40.522Z,18.09
2023-04-30T17:25:09.981Z,18.10
2023-04-30T17:27:38.646Z,17.66
2023-04-30T17:30:10.063Z,18.39
2023-04-30T17:32:39.119Z,17.23
2023-04-30T17:35:08.336Z,17.40
2023-04-30T17:37:36.987Z,17.69
2023-04-30T17:40:06.502Z,17.75
2023-04-30T17:42:35.166Z,17.39
2023-04-30T17:45:03.538Z,17.59
2023-04-30T17:47:33.282Z,17.53
2023-04-30T17:50:04.622Z,18.17
2023-04-30T17:52:35.590Z,18.04
2023-04-30T17:55:03.924Z,17.99
2023-04-30T17:57:32.224Z,18.43
2023-04-30T18:00:00.551Z,18.27
2023-04-30T18:02:28.991Z,17.77
2023-04-30T18:04:58.642Z,18.01
2023-04-30T18:07:26.913Z,17.70
2023-04-30T18:09:55.335Z,17.50
2023-04-30T18:12:23.792Z,17.87
2023-04-30T18:14:52.133Z,18.07
2023-04-30T18:17:20.428Z,17.93
2023-04-30T18:19:49.805Z,17.94
2023-04-30T18:22:19.954Z,17.58
2023-04-30T18:24:48.242Z,17.13
2023-04-30T18:27:16.516Z,17.65
2023-04-30T18:29:45.234Z,18.02
2023-04-30T18:32:13.751Z,17.27
2023-04-30T18:34:42.367Z,17.74
2023-04-30T18:37:10.891Z,17.84
2023-04-30T18:39:40.723Z,18.39
2023-04-30T18:42:09.473Z,18.16
2023-04-30T18:44:37.962Z,18.72
2023-04-30T18:47:06.934Z,17.86
2023-04-30T18:49:35.190Z,17.82
2023-04-30T18:52:03.536Z,18.05
2023-04-30T18:54:31.899Z,17.97
2023-04-30T18:57:01.506Z,17.42
2023-04-30T18:59:29.800Z,17.43
2023-04-30T19:01:58.103Z,18.02
2023-04-30T19:04:26.449Z,18.36
2023-04-30T19:06:55.744Z,18.26
2023-04-30T19:09:24.534Z,18.07
2023-04-30T19:11:53.279Z,16.94
2023-04-30T19:14:23.685Z,16.78
2023-04-30T19:16:52.554Z,17.54
2023-04-30T19:19:22.227Z,17.18
2023-04-30T19:21:51.648Z,17.28
2023-04-30T19:24:21.288Z,16.73
2023-04-30T19:26:50.996Z,16.81
2023-04-30T19:29:19.704Z,17.23
2023-04-30T19:31:49.857Z,18.11
2023-04-30T19:34:18.651Z,18.06
2023-04-30T19:36:47.634Z,18.22
2023-04-30T19:39:16.630Z,17.80
2023-04-30T19:41:45.297Z,18.33
2023-04-30T19:44:14.490Z,17.36
2023-04-30T19:46:44.381Z,17.82
2023-04-30T19:49:17.114Z,18.01
2023-04-30T19:51:45.866Z,17.73
2023-04-30T19:54:15.455Z,17.24
2023-04-30T19:56:44.404Z,17.77
2023-04-30T19:59:14.456Z,17.22
2023-04-30T20:01:43.245Z,17.60
2023-04-30T20:04:13.448Z,17.18
2023-04-30T20:06:42.081Z,16.35
2023-04-30T20:09:13.871Z,16.81
2023-04-30T20:11:42.457Z,16.64
2023-04-30T20:14:11.369Z,17.73
2023-04-30T20:16:40.352Z,17.71
2023-04-30T20:19:09.839Z,17.51
2023-04-30T20:21:40.021Z,17.64
2023-04-30T20:24:09.571Z,17.47
2023-04-30T20:26:38.504Z,17.32
2023-04-30T20:29:07.150Z,17.27
2023-04-30T20:31:37.170Z,17.18
2023-04-30T20:34:05.703Z,16.98
2023-04-30T20:36:34.693Z,17.58
2023-04-30T20:39:09.439Z,17.14
2023-04-30T20:41:38.135Z,17.77
2023-04-30T20:44:07.023Z,17.99
2023-04-30T20:46:38.818Z,18.11
2023-04-30T20:49:07.316Z,17.55
2023-04-30T20:51:36.916Z,18.12
2023-04-30T20:54:08.761Z,17.42
2023-04-30T20:56:37.411Z,17.52
2023-04-30T20:59:06.061Z,17.66
2023-04-30T21:01:34.813Z,16.70
2023-04-30T21:04:05.032Z,16.60
2023-04-30T21:06:34.113Z,17.28
2023-04-30T21:09:03.331Z,17.47
2023-04-30T21:11:33.920Z,17.02
2023-04-30T21:14:02.700Z,16.61
2023-04-30T21:16:32.814Z,17.32
2023-04-30T21:19:01.924Z,16.76
2023-04-30T21:21:31.199Z,16.00
2023-04-30T21:24:02.657Z,16.02
2023-04-30T21:26:32.690Z,16.45
2023-04-30T21:29:02.657Z,15.95
2023-04-30T21:31:31.904Z,16.71
2023-04-30T21:34:00.706Z,16.26
2023-04-30T21:36:30.185Z,16.32
2023-04-30T21:38:59.566Z,17.11
2023-04-30T21:41:28.886Z,17.11
2023-04-30T21:43:58.751Z,16.31
2023-04-30T21:46:27.545Z,15.94
2023-04-30T21:48:56.695Z,16.06
2023-04-30T21:51:27.090Z,16.19
2023-04-30T21:53:55.697Z,16.68
2023-04-30T21:56:26.493Z,16.29
2023-04-30T21:58:55.353Z,16.37
2023-04-30T22:01:28.033Z,14.90
2023-04-30T22:03:56.932Z,16.34
2023-04-30T22:06:25.633Z,16.99
2023-04-30T22:08:54.169Z,16.45
2023-04-30T22:11:22.896Z,16.34
2023-04-30T22:13:51.284Z,16.87
2023-04-30T22:16:20.263Z,16.10
2023-04-30T22:18:50.499Z,16.09
2023-04-30T22:21:19.514Z,15.95
2023-04-30T22:23:49.034Z,16.27
2023-04-30T22:26:17.550Z,16.64
2023-04-30T22:28:45.942Z,17.22
2023-04-30T22:31:14.489Z,16.59
2023-04-30T22:33:43.024Z,17.09
2023-04-30T22:36:13.017Z,17.18
2023-04-30T22:38:42.103Z,17.22
2023-04-30T22:41:11.026Z,16.88
2023-04-30T22:43:39.856Z,16.86
2023-04-30T22:46:08.753Z,17.18
2023-04-30T22:48:40.471Z,17.38
2023-04-30T22:51:09.633Z,17.38
2023-04-30T22:53:39.757Z,16.05
2023-04-30T22:56:09.024Z,16.88
2023-04-30T22:58:37.486Z,17.34
2023-04-30T23:01:06.336Z,17.33
2023-04-30T23:03:35.652Z,17.68
2023-04-30T23:06:04.679Z,17.75
2023-04-30T23:08:33.585Z,17.88
2023-04-30T23:11:05.534Z,17.34
2023-04-30T23:13:34.558Z,17.25
2023-04-30T23:16:05.637Z,17.37
2023-04-30T23:18:34.354Z,17.20
2023-04-30T23:21:06.010Z,17.06
2023-04-30T23:23:35.101Z,17.05
2023-04-30T23:26:06.528Z,17.37
2023-04-30T23:28:37.292Z,17.48
2023-04-30T23:31:06.165Z,17.52
2023-04-30T23:33:34.562Z,17.59
2023-04-30T23:36:03.275Z,17.64
2023-04-30T23:38:31.932Z,17.61
2023-04-30T23:41:03.453Z,17.59
2023-04-30T23:43:34.848Z,17.68
2023-04-30T23:46:04.169Z,17.61
2023-04-30T23:48:32.998Z,17.60
2023-04-30T23:51:02.470Z,17.61
2023-04-30T23:53:31.796Z,17.58
2023-04-30T23:56:00.888Z,17.63
2023-04-30T23:58:31.029Z,17.57
